Time;durP1;ratioP1;P1;durP2;ratioP2;P2;SDS_P1;SDS_P2;PMS_P1;PMS_P2;Temp;Humidity;BMP_temperature;BMP_pressure;BME280_temperature;BME280_humidity;BME280_pressure;Samples;Min_cycle;Max_cycle;Signal;HPM_P1;HPM_P2
2021/01/06 00:01:03;;;;;;;3.30;1.98;;;1.50;99.90;;;;;;4963287;28;20046;-68
2021/01/06 00:03:29;;;;;;;2.58;2.38;;;1.50;99.90;;;;;;4963142;28;20054;-68
2021/01/06 00:05:59;;;;;;;2.88;2.53;;;1.50;99.90;;;;;;4967154;28;20061;-67
2021/01/06 00:08:27;;;;;;;2.80;2.35;;;1.50;99.90;;;;;;4963920;28;20046;-68
2021/01/06 00:10:55;;;;;;;2.58;2.38;;;1.50;99.90;;;;;;4965361;28;20058;-66
2021/01/06 00:13:22;;;;;;;3.53;2.95;;;1.50;99.90;;;;;;4965946;28;20050;-65
2021/01/06 00:15:49;;;;;;;2.83;2.42;;;1.50;99.90;;;;;;4967411;28;20059;-67
2021/01/06 00:18:19;;;;;;;2.33;1.67;;;1.50;99.90;;;;;;4967079;28;20177;-67
2021/01/06 00:20:47;;;;;;;3.05;2.33;;;1.50;99.90;;;;;;4967390;28;20051;-67
2021/01/06 00:23:14;;;;;;;3.88;2.53;;;1.50;99.90;;;;;;4964891;28;20074;-66
2021/01/06 00:25:43;;;;;;;2.85;2.45;;;1.50;99.90;;;;;;4967408;28;20148;-72
2021/01/06 00:28:13;;;;;;;3.35;2.80;;;1.50;99.90;;;;;;4966762;28;20560;-67
2021/01/06 00:30:39;;;;;;;3.20;2.87;;;1.50;99.90;;;;;;4967342;28;20253;-66
2021/01/06 00:33:08;;;;;;;3.85;2.75;;;1.50;99.90;;;;;;4965200;28;20055;-68
2021/01/06 00:35:35;;;;;;;4.13;3.15;;;1.50;99.90;;;;;;4962243;28;20418;-67
2021/01/06 00:38:03;;;;;;;2.85;2.38;;;1.50;99.90;;;;;;4966471;28;20161;-66
2021/01/06 00:40:32;;;;;;;3.20;2.88;;;1.50;99.90;;;;;;4964982;28;20073;-68
2021/01/06 00:43:01;;;;;;;6.20;3.85;;;1.50;99.90;;;;;;4967043;28;20046;-67
2021/01/06 00:45:27;;;;;;;5.05;3.97;;;1.50;99.90;;;;;;4965705;28;20439;-67
2021/01/06 00:47:54;;;;;;;4.07;2.75;;;1.50;99.90;;;;;;4966253;28;20050;-67
2021/01/06 00:50:26;;;;;;;7.18;3.47;;;1.50;99.90;;;;;;4965296;28;20145;-68
2021/01/06 00:53:07;;;;;;;4.75;3.25;;;1.50;99.90;;;;;;4962093;28;20051;-66
2021/01/06 00:55:37;;;;;;;5.95;3.95;;;1.40;99.90;;;;;;4962519;28;20169;-65
2021/01/06 00:58:04;;;;;;;3.55;2.72;;;1.40;99.90;;;;;;4979846;28;20112;-67
2021/01/06 01:00:49;;;;;;;4.90;2.92;;;1.40;99.90;;;;;;4966685;28;20070;-66
2021/01/06 01:03:16;;;;;;;4.50;2.75;;;1.30;99.90;;;;;;4959233;28;20509;-67
2021/01/06 01:05:47;;;;;;;3.45;2.88;;;1.30;99.90;;;;;;4964882;28;20070;-68
2021/01/06 01:08:14;;;;;;;2.92;2.70;;;1.30;99.90;;;;;;4965414;28;20038;-65
2021/01/06 01:10:44;;;;;;;4.55;3.13;;;1.30;99.90;;;;;;4966199;28;20125;-68
2021/01/06 01:13:15;;;;;;;5.32;2.90;;;1.30;99.90;;;;;;4964796;28;20058;-68
2021/01/06 01:15:42;;;;;;;;;;;1.20;99.90;;;;;;4965858;28;20415;-68
2021/01/06 01:18:13;;;;;;;4.80;3.42;;;1.20;99.90;;;;;;4965682;28;20144;-68
2021/01/06 01:20:50;;;;;;;5.32;3.67;;;1.20;99.90;;;;;;4966339;28;20046;-66
2021/01/06 01:23:19;;;;;;;3.47;3.17;;;1.20;99.90;;;;;;4961255;28;20057;-68
2021/01/06 01:25:47;;;;;;;5.13;3.92;;;1.20;99.90;;;;;;4965885;28;20090;-67
2021/01/06 01:28:16;;;;;;;7.60;4.68;;;1.20;99.90;;;;;;4965705;28;20043;-66
2021/01/06 01:30:42;;;;;;;5.30;4.68;;;1.20;99.90;;;;;;4966143;28;20067;-70
2021/01/06 01:33:11;;;;;;;4.82;3.97;;;1.10;99.90;;;;;;4964028;28;20055;-71
2021/01/06 01:35:38;;;;;;;6.57;3.90;;;1.10;99.90;;;;;;4966415;28;20050;-65
2021/01/06 01:38:05;;;;;;;5.50;3.97;;;1.10;99.90;;;;;;4961756;28;20524;-64
2021/01/06 01:40:35;;;;;;;6.32;4.07;;;1.10;99.90;;;;;;4965393;28;20050;-66
2021/01/06 01:43:12;;;;;;;6.60;4.50;;;1.10;99.90;;;;;;4965693;28;20577;-66
2021/01/06 01:45:50;;;;;;;5.93;4.63;;;1.10;99.90;;;;;;4964499;28;20078;-65
2021/01/06 01:48:34;;;;;;;6.75;4.80;;;1.10;99.90;;;;;;4964569;28;20122;-67
2021/01/06 01:51:17;;;;;;;6.22;4.35;;;1.10;99.90;;;;;;4964078;28;20046;-68
2021/01/06 01:54:01;;;;;;;6.10;4.70;;;1.10;99.90;;;;;;4963176;28;20089;-66
2021/01/06 01:56:34;;;;;;;6.10;4.57;;;1.10;99.90;;;;;;4965561;28;20771;-66
2021/01/06 01:59:02;;;;;;;7.05;4.93;;;1.10;99.90;;;;;;4965393;28;20054;-68
2021/01/06 02:01:30;;;;;;;6.10;4.70;;;1.00;99.90;;;;;;4964185;28;20129;-68
2021/01/06 02:04:08;;;;;;;7.75;4.78;;;1.00;99.90;;;;;;4965169;28;20074;-66
2021/01/06 02:07:02;;;;;;;9.00;5.25;;;1.00;99.90;;;;;;4964958;28;20057;-71
2021/01/06 02:09:36;;;;;;;6.07;5.10;;;1.00;99.90;;;;;;4969371;28;20089;-68
2021/01/06 02:12:12;;;;;;;4.47;3.75;;;1.10;99.90;;;;;;4964095;28;20053;-65
2021/01/06 02:15:16;;;;;;;7.47;4.88;;;1.10;99.90;;;;;;4965260;28;20065;-66
2021/01/06 02:17:42;;;;;;;9.82;5.85;;;1.10;99.90;;;;;;4971501;28;20070;-66
2021/01/06 02:20:16;;;;;;;6.05;4.70;;;1.10;99.90;;;;;;4965350;28;20047;-68
2021/01/06 02:22:44;;;;;;;10.18;5.38;;;1.10;99.90;;;;;;4964219;28;20061;-65
2021/01/06 02:25:11;;;;;;;9.38;4.88;;;1.10;99.90;;;;;;4961999;28;20128;-68
2021/01/06 02:27:38;;;;;;;6.32;4.43;;;1.10;99.90;;;;;;4964256;28;20165;-69
2021/01/06 02:30:07;;;;;;;8.57;5.45;;;1.10;99.90;;;;;;4965075;28;20387;-67
2021/01/06 02:32:34;;;;;;;9.38;6.93;;;1.10;99.90;;;;;;4964904;28;20054;-65
2021/01/06 02:35:00;;;;;;;8.35;5.22;;;1.10;99.90;;;;;;4965042;28;20156;-71
2021/01/06 02:37:27;;;;;;;9.43;5.35;;;1.10;99.90;;;;;;4962565;28;20054;-68
2021/01/06 02:39:54;;;;;;;7.80;5.00;;;1.10;99.90;;;;;;4965096;28;20070;-66
2021/01/06 02:42:21;;;;;;;7.90;5.28;;;1.10;99.90;;;;;;4964635;28;20047;-73
2021/01/06 02:44:47;;;;;;;6.13;4.45;;;1.10;99.90;;;;;;4964752;28;20051;-65
2021/01/06 02:47:16;;;;;;;7.30;5.47;;;1.10;99.90;;;;;;4963514;28;20125;-66
2021/01/06 02:49:44;;;;;;;8.10;5.93;;;1.10;99.90;;;;;;4964687;28;20450;-68
2021/01/06 02:52:13;;;;;;;9.68;6.38;;;1.10;99.90;;;;;;4963644;28;20063;-72
2021/01/06 02:54:43;;;;;;;8.05;5.55;;;1.10;99.90;;;;;;4964934;28;20054;-69
2021/01/06 02:57:11;;;;;;;8.30;6.13;;;1.10;99.90;;;;;;4962463;28;20055;-66
2021/01/06 02:59:43;;;;;;;7.35;5.65;;;1.10;99.90;;;;;;4964729;28;20078;-67
2021/01/06 03:02:29;;;;;;;7.13;4.82;;;1.10;99.90;;;;;;4963565;28;20502;-69
2021/01/06 03:05:02;;;;;;;8.30;5.60;;;1.10;99.90;;;;;;4962191;28;20073;-67
2021/01/06 03:07:29;;;;;;;7.82;5.40;;;1.10;99.90;;;;;;4959441;28;20057;-66
2021/01/06 03:09:56;;;;;;;9.13;5.05;;;1.10;99.90;;;;;;4961419;28;20145;-67
2021/01/06 03:12:30;;;;;;;7.88;6.10;;;1.10;99.90;;;;;;4964047;28;20074;-65
2021/01/06 03:15:18;;;;;;;7.40;5.78;;;1.10;99.90;;;;;;4963306;28;20140;-68
2021/01/06 03:17:45;;;;;;;8.45;5.45;;;1.10;99.90;;;;;;4963702;28;20724;-65
2021/01/06 03:20:24;;;;;;;8.27;5.88;;;1.10;99.90;;;;;;4964441;28;20105;-68
2021/01/06 03:22:58;;;;;;;8.38;5.85;;;1.10;99.90;;;;;;4960340;28;20055;-68
2021/01/06 03:25:24;;;;;;;8.88;5.47;;;1.10;99.90;;;;;;4960776;28;20055;-71
2021/01/06 03:27:53;;;;;;;7.28;5.60;;;1.10;99.90;;;;;;4960867;28;20432;-72
2021/01/06 03:30:24;;;;;;;8.73;6.05;;;1.10;99.90;;;;;;4959883;28;20057;-72
2021/01/06 03:33:04;;;;;;;12.57;5.50;;;1.10;99.90;;;;;;4968221;28;20062;-71
2021/01/06 03:35:36;;;;;;;8.68;5.70;;;1.10;99.90;;;;;;4960837;28;20130;-68
2021/01/06 03:38:15;;;;;;;7.68;5.70;;;1.10;99.90;;;;;;4960177;28;20054;-68
2021/01/06 03:40:44;;;;;;;9.07;5.65;;;1.10;99.90;;;;;;4962485;28;20059;-68
2021/01/06 03:43:12;;;;;;;8.95;6.18;;;1.10;99.90;;;;;;4961841;28;20093;-67
2021/01/06 03:45:42;;;;;;;7.40;6.57;;;1.10;99.90;;;;;;4963924;28;20656;-68
2021/01/06 03:48:27;;;;;;;;;;;1.10;99.90;;;;;;4964680;28;20142;-65
2021/01/06 03:51:00;;;;;;;8.38;5.57;;;1.10;99.90;;;;;;4963965;28;19922;-66
2021/01/06 03:53:36;;;;;;;7.88;4.85;;;1.10;99.90;;;;;;4958778;28;20130;-68
2021/01/06 03:56:13;;;;;;;9.43;5.75;;;1.10;99.90;;;;;;4957629;28;20047;-65
2021/01/06 03:59:01;;;;;;;6.15;4.75;;;1.10;99.90;;;;;;4961920;28;20059;-67
2021/01/06 04:01:54;;;;;;;9.70;4.78;;;1.10;99.90;;;;;;4961563;28;20510;-65
2021/01/06 04:04:58;;;;;;;6.80;4.43;;;1.10;99.90;;;;;;4960952;28;20062;-71
2021/01/06 04:07:30;;;;;;;12.95;6.00;;;1.00;99.90;;;;;;4961146;28;20074;-68
2021/01/06 04:10:07;;;;;;;10.55;5.10;;;1.10;99.90;;;;;;4962752;28;20387;-65
2021/01/06 04:12:33;;;;;;;6.72;4.72;;;1.00;99.90;;;;;;4963287;28;20097;-65
2021/01/06 04:15:00;;;;;;;7.38;4.63;;;1.00;99.90;;;;;;4963610;28;20054;-68
2021/01/06 04:17:33;;;;;;;7.55;4.90;;;1.00;99.90;;;;;;4962084;28;20436;-66
2021/01/06 04:20:14;;;;;;;6.10;4.35;;;1.00;99.90;;;;;;4963767;28;20429;-67
2021/01/06 04:22:56;;;;;;;8.30;4.70;;;1.00;99.90;;;;;;4962523;28;20160;-66
2021/01/06 04:25:33;;;;;;;6.75;4.53;;;1.00;99.90;;;;;;4962150;28;20051;-72
2021/01/06 04:28:03;;;;;;;7.72;4.18;;;1.00;99.90;;;;;;4963358;28;20055;-68
2021/01/06 04:30:38;;;;;;;6.28;4.13;;;1.00;99.90;;;;;;4963937;28;20443;-68
2021/01/06 04:33:27;;;;;;;8.60;4.30;;;1.00;99.90;;;;;;4962927;28;20180;-65
2021/01/06 04:35:56;;;;;;;5.72;3.90;;;1.00;99.90;;;;;;4962120;28;20153;-68
2021/01/06 04:38:26;;;;;;;5.85;4.15;;;1.00;99.90;;;;;;4962574;28;20235;-68
2021/01/06 04:40:59;;;;;;;6.88;4.40;;;1.00;99.90;;;;;;4963306;28;20074;-67
2021/01/06 04:43:55;;;;;;;8.15;5.10;;;1.00;99.90;;;;;;4957814;28;20055;-67
2021/01/06 04:46:31;;;;;;;5.15;3.63;;;1.00;99.90;;;;;;4964481;28;20479;-72
2021/01/06 04:49:07;;;;;;;7.70;4.60;;;1.00;99.90;;;;;;4963274;28;20043;-67
2021/01/06 04:51:46;;;;;;;7.32;3.78;;;1.00;99.90;;;;;;4965332;28;20131;-65
2021/01/06 04:54:28;;;;;;;6.32;4.13;;;1.00;99.90;;;;;;4965952;28;20039;-65
2021/01/06 04:57:11;;;;;;;6.72;3.85;;;1.00;99.90;;;;;;4965717;28;20050;-67
2021/01/06 04:59:55;;;;;;;5.10;3.85;;;1.00;99.90;;;;;;4965510;28;20094;-66
2021/01/06 05:03:25;;;;;;;6.75;4.57;;;0.90;99.90;;;;;;4962653;28;20145;-68
2021/01/06 05:06:14;;;;;;;9.70;4.22;;;0.90;99.90;;;;;;4964239;28;20049;-71
2021/01/06 05:08:54;;;;;;;6.22;4.00;;;1.00;99.90;;;;;;4964685;28;20046;-68
2021/01/06 05:12:07;;;;;;;5.00;4.07;;;1.00;99.90;;;;;;4962023;28;20047;-69
2021/01/06 05:14:41;;;;;;;7.72;4.18;;;1.00;99.90;;;;;;4966946;28;20047;-68
2021/01/06 05:17:09;;;;;;;6.22;5.25;;;0.90;99.90;;;;;;4966259;28;20729;-67
2021/01/06 05:19:36;;;;;;;7.03;5.53;;;1.00;99.90;;;;;;4970106;28;20055;-68
2021/01/06 05:22:05;;;;;;;4.72;3.97;;;0.90;99.90;;;;;;4967615;28;20149;-68
2021/01/06 05:24:50;;;;;;;5.70;4.55;;;0.90;99.90;;;;;;4967312;28;20034;-68
2021/01/06 05:27:26;;;;;;;8.57;4.38;;;0.90;99.90;;;;;;4965548;28;20069;-67
2021/01/06 05:29:59;;;;;;;6.82;4.95;;;0.90;99.90;;;;;;4967091;28;20054;-65
2021/01/06 05:32:38;;;;;;;7.63;4.35;;;0.90;99.90;;;;;;4966023;28;20481;-69
2021/01/06 05:35:13;;;;;;;7.18;4.07;;;0.90;99.90;;;;;;4967394;28;20047;-67
2021/01/06 05:37:42;;;;;;;5.00;4.10;;;0.90;99.90;;;;;;4966358;28;20062;-68
2021/01/06 05:40:12;;;;;;;5.78;4.55;;;0.90;99.90;;;;;;4966093;28;20043;-65
2021/01/06 05:42:48;;;;;;;6.40;5.05;;;0.90;99.90;;;;;;4967744;28;20509;-65
2021/01/06 05:45:16;;;;;;;7.05;5.10;;;0.90;99.90;;;;;;4964797;28;20515;-71
2021/01/06 05:48:02;;;;;;;5.80;4.07;;;0.90;99.90;;;;;;4966681;28;20607;-69
2021/01/06 05:50:38;;;;;;;5.43;4.63;;;0.90;99.90;;;;;;4963385;28;20039;-68
2021/01/06 05:53:17;;;;;;;6.53;4.57;;;0.90;99.90;;;;;;4965406;28;20054;-68
2021/01/06 05:55:50;;;;;;;7.60;4.32;;;0.90;99.90;;;;;;4964857;28;20090;-68
2021/01/06 05:58:36;;;;;;;6.95;5.22;;;0.90;99.90;;;;;;4965160;28;20047;-67
2021/01/06 06:01:09;;;;;;;7.78;4.82;;;0.90;99.90;;;;;;4965227;28;20051;-66
2021/01/06 06:04:04;;;;;;;8.68;5.47;;;0.90;99.90;;;;;;4963871;28;20789;-68
2021/01/06 06:07:06;;;;;;;9.55;4.60;;;0.90;99.90;;;;;;4955407;28;20062;-72
2021/01/06 06:10:04;;;;;;;7.13;4.65;;;0.90;99.90;;;;;;4938809;28;20058;-67
2021/01/06 06:13:15;;;;;;;7.18;4.43;;;0.90;99.90;;;;;;4962141;28;20072;-67
2021/01/06 06:16:04;;;;;;;7.15;4.68;;;0.90;99.90;;;;;;4950431;28;20116;-70
2021/01/06 06:18:49;;;;;;;7.10;4.80;;;0.90;99.90;;;;;;4965186;28;20156;-66
2021/01/06 06:21:48;;;;;;;9.50;5.18;;;0.90;99.90;;;;;;4964525;28;20055;-72
2021/01/06 06:24:20;;;;;;;7.13;4.50;;;0.90;99.90;;;;;;4965024;28;20733;-66
2021/01/06 06:27:20;;;;;;;4.15;3.72;;;0.90;99.90;;;;;;4964632;28;20055;-67
2021/01/06 06:30:10;;;;;;;6.90;5.57;;;0.90;99.90;;;;;;4963431;28;20059;-65
2021/01/06 06:32:39;;;;;;;7.15;4.88;;;0.90;99.90;;;;;;4964382;28;20386;-68
2021/01/06 06:35:30;;;;;;;5.88;4.43;;;0.90;99.90;;;;;;4965267;28;20117;-66
2021/01/06 06:38:01;;;;;;;9.75;4.15;;;0.90;99.90;;;;;;4957129;28;20451;-71
2021/01/06 06:41:06;;;;;;;6.88;4.47;;;0.90;99.90;;;;;;4965266;28;20058;-65
2021/01/06 06:43:34;;;;;;;4.78;4.28;;;0.90;99.90;;;;;;4962249;28;20144;-65
2021/01/06 06:46:38;;;;;;;7.93;4.68;;;0.90;99.90;;;;;;4964902;28;20498;-68
2021/01/06 06:49:11;;;;;;;7.20;4.55;;;0.90;99.90;;;;;;4962270;28;20047;-68
2021/01/06 06:52:18;;;;;;;8.55;4.70;;;0.90;99.90;;;;;;4962892;28;20192;-65
2021/01/06 06:55:03;;;;;;;5.60;4.10;;;0.90;99.90;;;;;;4963384;28;20086;-66
2021/01/06 06:58:08;;;;;;;5.63;4.43;;;0.90;99.90;;;;;;4962980;28;20050;-68
2021/01/06 07:00:37;;;;;;;5.65;4.43;;;0.90;99.90;;;;;;4980830;28;20180;-68
2021/01/06 07:03:05;;;;;;;10.35;4.75;;;1.00;99.90;;;;;;4967476;28;20042;-69
2021/01/06 07:05:53;;;;;;;5.45;4.05;;;1.00;99.90;;;;;;4960835;28;20064;-65
2021/01/06 07:08:50;;;;;;;8.23;5.15;;;1.00;99.90;;;;;;4962621;28;20420;-67
2021/01/06 07:11:35;;;;;;;4.38;3.95;;;1.00;99.90;;;;;;4962080;28;20125;-67
2021/01/06 07:14:04;;;;;;;5.45;4.65;;;1.00;99.90;;;;;;4963139;28;20047;-67
2021/01/06 07:16:34;;;;;;;4.40;3.65;;;1.00;99.90;;;;;;4964498;28;20050;-66
2021/01/06 07:19:54;;;;;;;8.77;5.13;;;1.00;99.90;;;;;;4963571;28;20478;-66
2021/01/06 07:22:32;;;;;;;5.25;4.75;;;1.00;99.90;;;;;;4958993;28;20043;-68
2021/01/06 07:25:17;;;;;;;10.30;5.25;;;1.00;99.90;;;;;;4962330;28;20046;-65
2021/01/06 07:27:53;;;;;;;7.40;5.45;;;1.00;99.90;;;;;;4961204;28;20066;-68
2021/01/06 07:30:51;;;;;;;7.20;4.60;;;1.00;99.90;;;;;;4959756;28;20145;-71
2021/01/06 07:33:25;;;;;;;6.22;4.50;;;1.00;99.90;;;;;;4956324;28;20112;-67
2021/01/06 07:35:52;;;;;;;7.93;4.30;;;1.10;99.90;;;;;;4963852;28;20157;-67
2021/01/06 07:38:20;;;;;;;5.72;4.10;;;1.10;99.90;;;;;;4964399;28;20141;-65
2021/01/06 07:40:56;;;;;;;5.43;4.05;;;1.10;99.90;;;;;;4963600;28;20051;-67
2021/01/06 07:44:04;;;;;;;5.57;4.95;;;1.10;99.90;;;;;;4960396;28;20097;-68
2021/01/06 07:46:56;;;;;;;5.45;3.90;;;1.10;99.90;;;;;;4962537;28;20047;-66
2021/01/06 07:49:41;;;;;;;6.13;4.32;;;1.10;99.90;;;;;;4961960;28;20042;-66
2021/01/06 07:52:32;;;;;;;6.88;4.53;;;1.10;99.90;;;;;;4961303;28;20407;-67
2021/01/06 07:55:23;;;;;;;4.60;3.70;;;1.10;99.90;;;;;;4963887;28;20419;-66
2021/01/06 07:58:27;;;;;;;4.97;3.40;;;1.10;99.90;;;;;;4965379;28;20059;-68
2021/01/06 08:01:07;;;;;;;6.50;4.13;;;1.20;99.90;;;;;;4962146;28;20137;-71
2021/01/06 08:04:03;;;;;;;4.05;2.88;;;1.20;99.90;;;;;;4962238;28;20478;-67
2021/01/06 08:06:47;;;;;;;5.32;4.25;;;1.20;99.90;;;;;;4963466;28;20055;-68
2021/01/06 08:09:45;;;;;;;5.40;3.20;;;1.20;99.90;;;;;;4961066;28;20478;-67
2021/01/06 08:12:24;;;;;;;4.47;3.53;;;1.20;99.90;;;;;;4962612;28;20094;-65
2021/01/06 08:15:43;;;;;;;5.45;4.57;;;1.20;99.90;;;;;;4963591;28;20890;-68
2021/01/06 08:18:30;;;;;;;6.13;3.92;;;1.30;99.90;;;;;;4947130;28;20094;-67
2021/01/06 08:21:24;;;;;;;5.45;4.13;;;1.30;99.90;;;;;;4960780;28;20117;-65
2021/01/06 08:24:30;;;;;;;6.88;4.68;;;1.20;99.90;;;;;;4960513;28;20046;-71
2021/01/06 08:26:59;;;;;;;7.00;4.78;;;1.30;99.90;;;;;;4963936;28;20173;-68
2021/01/06 08:29:29;;;;;;;6.45;4.35;;;1.30;99.90;;;;;;4965489;28;20675;-68
2021/01/06 08:32:00;;;;;;;6.47;4.67;;;1.30;99.90;;;;;;4967276;28;20063;-68
2021/01/06 08:34:33;;;;;;;7.35;4.65;;;1.30;99.90;;;;;;4966352;28;20061;-68
2021/01/06 08:37:09;;;;;;;7.85;4.60;;;1.30;99.90;;;;;;4966340;28;20070;-70
2021/01/06 08:39:55;;;;;;;7.35;4.55;;;1.30;99.90;;;;;;4950611;28;20142;-69
2021/01/06 08:42:42;;;;;;;7.13;5.47;;;1.30;99.90;;;;;;4966974;28;20495;-69
2021/01/06 08:45:21;;;;;;;10.68;5.32;;;1.40;99.90;;;;;;4964256;28;20043;-65
2021/01/06 08:47:48;;;;;;;8.15;4.93;;;1.40;99.90;;;;;;4965355;28;20050;-65
2021/01/06 08:50:37;;;;;;;6.78;5.20;;;1.40;99.90;;;;;;4963721;28;20067;-69
2021/01/06 08:53:05;;;;;;;10.68;5.80;;;1.40;99.90;;;;;;4965451;28;20057;-67
2021/01/06 08:55:40;;;;;;;9.75;6.25;;;1.40;99.90;;;;;;4965723;28;20054;-69
2021/01/06 08:58:12;;;;;;;5.25;4.00;;;1.50;99.90;;;;;;4966318;28;20573;-67
2021/01/06 09:00:58;;;;;;;5.60;4.75;;;1.50;99.90;;;;;;4963191;28;20047;-65
2021/01/06 09:03:44;;;;;;;7.75;5.25;;;1.50;99.90;;;;;;4965018;28;20143;-66
2021/01/06 09:06:10;;;;;;;8.30;5.20;;;1.50;99.90;;;;;;4965148;28;20054;-70
2021/01/06 09:08:37;;;;;;;9.90;6.28;;;1.50;99.90;;;;;;4965225;28;20053;-67
2021/01/06 09:11:26;;;;;;;7.60;4.68;;;1.50;99.90;;;;;;4966001;28;20126;-67
2021/01/06 09:13:57;;;;;;;6.45;5.13;;;1.50;99.90;;;;;;4964191;28;20487;-68
2021/01/06 09:16:26;;;;;;;;;;;1.50;99.90;;;;;;4967281;28;20379;-67
2021/01/06 09:19:05;;;;;;;7.35;5.68;;;1.50;99.90;;;;;;4965172;28;19926;-66
2021/01/06 09:21:33;;;;;;;7.13;5.65;;;1.50;99.90;;;;;;4965293;28;20105;-67
2021/01/06 09:24:07;;;;;;;10.00;5.63;;;1.50;99.90;;;;;;4964946;28;20094;-66
2021/01/06 09:26:34;;;;;;;8.70;5.43;;;1.50;99.90;;;;;;4966389;28;20130;-66
2021/01/06 09:29:15;;;;;;;8.80;5.30;;;1.50;99.90;;;;;;4965844;28;20035;-68
2021/01/06 09:31:48;;;;;;;10.32;5.65;;;1.60;99.90;;;;;;4965094;28;20546;-69
2021/01/06 09:34:18;;;;;;;8.73;5.75;;;1.60;99.90;;;;;;4965962;28;20042;-67
2021/01/06 09:36:47;;;;;;;7.95;5.55;;;1.60;99.90;;;;;;4964530;28;20093;-68
2021/01/06 09:39:18;;;;;;;7.50;5.40;;;1.60;99.90;;;;;;4964108;28;20499;-66
2021/01/06 09:41:45;;;;;;;7.85;5.35;;;1.60;99.90;;;;;;4966413;28;20158;-68
2021/01/06 09:44:13;;;;;;;10.00;5.57;;;1.60;99.90;;;;;;4965462;28;20544;-68
2021/01/06 09:47:01;;;;;;;10.48;5.68;;;1.60;99.90;;;;;;4961206;28;20051;-69
2021/01/06 09:49:32;;;;;;;9.18;6.45;;;1.60;99.90;;;;;;4961315;28;20494;-72
2021/01/06 09:52:15;;;;;;;14.68;6.97;;;1.60;99.90;;;;;;4964875;28;20078;-69
2021/01/06 09:54:42;;;;;;;10.63;5.88;;;1.60;99.90;;;;;;4962970;28;20114;-66
2021/01/06 09:57:16;;;;;;;11.52;6.63;;;1.60;99.90;;;;;;4963917;28;20055;-66
2021/01/06 09:59:44;;;;;;;7.75;5.40;;;1.60;99.90;;;;;;4965874;28;20062;-66
2021/01/06 10:02:23;;;;;;;9.88;6.40;;;1.70;99.90;;;;;;4965605;28;20081;-67
2021/01/06 10:04:55;;;;;;;9.57;6.32;;;1.70;99.90;;;;;;4965692;28;20047;-69
2021/01/06 10:07:25;;;;;;;9.13;6.43;;;1.70;99.90;;;;;;4963493;28;20117;-68
2021/01/06 10:10:27;;;;;;;7.50;5.60;;;1.70;99.90;;;;;;4965199;28;20054;-68
2021/01/06 10:13:03;;;;;;;14.15;7.50;;;1.70;99.90;;;;;;4964451;28;20137;-66
2021/01/06 10:15:55;;;;;;;12.30;7.13;;;1.70;99.90;;;;;;4961917;28;20046;-65
2021/01/06 10:18:47;;;;;;;11.57;7.90;;;1.70;99.90;;;;;;4963398;28;20683;-67
2021/01/06 10:21:35;;;;;;;12.75;8.10;;;1.70;99.90;;;;;;4962314;28;20049;-65
2021/01/06 10:24:21;;;;;;;9.70;7.35;;;1.70;99.90;;;;;;4964022;28;20058;-67
2021/01/06 10:27:22;;;;;;;10.13;7.95;;;1.70;99.90;;;;;;4964947;28;20058;-65
2021/01/06 10:29:52;;;;;;;10.98;6.88;;;1.70;99.90;;;;;;4963110;28;20050;-66
2021/01/06 10:32:44;;;;;;;11.38;7.90;;;1.70;99.90;;;;;;4964405;28;20050;-68
2021/01/06 10:35:29;;;;;;;14.40;9.27;;;1.80;99.90;;;;;;4960253;28;20055;-66
2021/01/06 10:37:55;;;;;;;15.38;8.80;;;1.80;99.90;;;;;;4964086;28;20200;-69
2021/01/06 10:40:37;;;;;;;14.05;8.43;;;1.80;99.90;;;;;;4964327;28;20058;-67
2021/01/06 10:43:24;;;;;;;14.55;8.43;;;1.80;99.90;;;;;;4965749;28;20074;-66
2021/01/06 10:45:51;;;;;;;13.82;9.40;;;1.80;99.90;;;;;;4964364;28;20050;-73
2021/01/06 10:48:42;;;;;;;16.33;8.88;;;1.90;99.90;;;;;;4963392;28;20090;-65
2021/01/06 10:51:09;;;;;;;12.27;8.00;;;1.90;99.90;;;;;;4967040;28;20093;-73
2021/01/06 10:53:41;;;;;;;11.27;8.52;;;1.90;99.90;;;;;;4963589;28;20140;-67
2021/01/06 10:56:15;;;;;;;13.57;9.25;;;1.90;99.90;;;;;;4964922;28;20385;-66
2021/01/06 10:59:03;;;;;;;10.10;6.78;;;1.90;99.90;;;;;;4962623;28;20109;-68
2021/01/06 11:02:03;;;;;;;9.32;6.38;;;1.90;99.90;;;;;;4961439;28;20058;-70
2021/01/06 11:04:42;;;;;;;7.60;6.18;;;2.00;99.90;;;;;;4964142;28;20049;-71
2021/01/06 11:07:29;;;;;;;9.88;7.20;;;2.00;99.90;;;;;;4960700;28;20097;-65
2021/01/06 11:10:39;;;;;;;11.75;6.85;;;2.00;99.90;;;;;;4962137;28;20055;-68
2021/01/06 11:13:50;;;;;;;9.65;6.18;;;2.00;99.90;;;;;;4960218;28;20059;-70
2021/01/06 11:16:22;;;;;;;8.55;6.07;;;2.00;99.90;;;;;;4958378;28;20049;-69
2021/01/06 11:18:50;;;;;;;9.70;6.82;;;2.00;99.90;;;;;;4962468;28;20046;-69
2021/01/06 11:21:21;;;;;;;9.02;7.43;;;2.00;99.90;;;;;;4963243;28;20113;-68
2021/01/06 11:23:50;;;;;;;11.98;7.18;;;2.00;99.90;;;;;;4962615;28;20073;-66
2021/01/06 11:26:31;;;;;;;9.60;7.05;;;2.00;99.90;;;;;;4962695;28;20110;-69
2021/01/06 11:29:17;;;;;;;12.38;6.57;;;2.00;99.90;;;;;;4962105;28;20161;-72
2021/01/06 11:31:50;;;;;;;13.57;7.18;;;2.00;99.90;;;;;;4963257;28;20050;-65
2021/01/06 11:34:16;;;;;;;13.50;6.72;;;2.10;99.90;;;;;;4962499;28;20538;-73
2021/01/06 11:36:53;;;;;;;11.52;6.70;;;2.10;99.90;;;;;;4964196;28;20047;-71
2021/01/06 11:39:38;;;;;;;11.07;7.25;;;2.00;99.90;;;;;;4960932;28;20168;-67
2021/01/06 11:42:11;;;;;;;9.10;6.97;;;2.00;99.90;;;;;;4963928;28;20042;-67
2021/01/06 11:44:43;;;;;;;10.70;7.82;;;2.10;99.90;;;;;;4963127;28;20043;-65
2021/01/06 11:47:27;;;;;;;14.30;8.95;;;2.10;99.90;;;;;;4956453;28;20058;-70
2021/01/06 11:49:54;;;;;;;11.10;7.55;;;2.10;99.90;;;;;;4963240;28;20471;-67
2021/01/06 11:52:32;;;;;;;11.63;8.00;;;2.10;99.90;;;;;;4963126;28;20597;-67
2021/01/06 11:55:08;;;;;;;14.27;9.00;;;2.10;99.90;;;;;;4961949;28;20146;-68
2021/01/06 11:57:56;;;;;;;13.60;8.57;;;2.10;99.90;;;;;;4962148;28;20094;-65
2021/01/06 12:00:41;;;;;;;13.38;8.70;;;2.10;99.90;;;;;;4966097;28;20117;-69
2021/01/06 12:03:07;;;;;;;9.93;7.30;;;2.00;99.90;;;;;;4966785;28;20109;-66
2021/01/06 12:06:06;;;;;;;11.07;7.60;;;2.10;99.90;;;;;;4967687;28;20141;-65
2021/01/06 12:08:57;;;;;;;16.02;7.85;;;2.10;99.90;;;;;;4966275;28;20046;-69
2021/01/06 12:11:31;;;;;;;11.85;7.95;;;2.10;99.90;;;;;;4965947;28;20129;-65
2021/01/06 12:14:25;;;;;;;11.10;6.88;;;2.10;99.90;;;;;;4965871;28;20514;-66
2021/01/06 12:17:01;;;;;;;11.85;7.65;;;2.10;99.90;;;;;;4967822;28;20069;-69
2021/01/06 12:19:59;;;;;;;9.50;6.47;;;2.10;99.90;;;;;;4963605;28;20125;-71
2021/01/06 12:22:26;;;;;;;10.95;7.18;;;2.10;99.90;;;;;;4964663;28;20657;-71
2021/01/06 12:25:25;;;;;;;11.15;7.65;;;2.10;99.90;;;;;;4967665;28;20626;-66
2021/01/06 12:28:06;;;;;;;10.52;6.72;;;2.10;99.90;;;;;;4961070;28;20047;-67
2021/01/06 12:30:39;;;;;;;12.10;7.15;;;2.10;99.90;;;;;;4967098;28;20066;-69
2021/01/06 12:33:23;;;;;;;11.93;7.05;;;2.10;99.90;;;;;;4967108;28;20078;-74
2021/01/06 12:35:49;;;;;;;8.25;6.68;;;2.00;99.90;;;;;;4965217;28;20047;-72
2021/01/06 12:38:18;;;;;;;10.48;6.57;;;2.10;99.90;;;;;;4966604;28;20152;-69
2021/01/06 12:41:06;;;;;;;9.98;7.05;;;2.10;99.90;;;;;;4966558;28;20043;-67
2021/01/06 12:43:39;;;;;;;11.35;8.05;;;2.10;99.90;;;;;;4966068;28;20534;-66
2021/01/06 12:46:41;;;;;;;9.48;6.72;;;2.10;99.90;;;;;;4966645;28;20173;-67
2021/01/06 12:49:14;;;;;;;10.80;6.97;;;2.10;99.90;;;;;;4965956;28;20047;-66
2021/01/06 12:52:12;;;;;;;10.30;6.78;;;2.10;99.90;;;;;;4966766;28;20050;-71
2021/01/06 12:54:49;;;;;;;7.30;6.57;;;2.10;99.90;;;;;;4963008;28;20050;-67
2021/01/06 12:57:27;;;;;;;9.52;7.10;;;2.10;99.90;;;;;;4965533;28;20049;-71
2021/01/06 12:59:58;;;;;;;9.40;7.35;;;2.10;99.90;;;;;;4967688;28;20062;-65
2021/01/06 13:02:38;;;;;;;13.52;6.95;;;2.10;99.90;;;;;;4965068;28;20470;-67
2021/01/06 13:05:19;;;;;;;11.48;7.20;;;2.00;99.90;;;;;;4964204;28;20050;-67
2021/01/06 13:07:55;;;;;;;10.88;7.60;;;2.10;99.90;;;;;;4964537;28;20058;-71
2021/01/06 13:10:38;;;;;;;8.38;7.20;;;2.00;99.90;;;;;;4965800;28;20054;-67
2021/01/06 13:13:26;;;;;;;9.90;7.05;;;2.00;99.90;;;;;;4965316;28;20045;-72
2021/01/06 13:16:23;;;;;;;9.32;6.20;;;2.00;99.90;;;;;;4965755;28;20263;-69
2021/01/06 13:19:24;;;;;;;9.98;7.35;;;2.00;99.90;;;;;;4945709;28;20097;-65
2021/01/06 13:22:20;;;;;;;11.23;7.05;;;2.00;99.90;;;;;;4964169;28;20046;-69
2021/01/06 13:25:02;;;;;;;9.82;7.55;;;2.00;99.90;;;;;;4962455;28;20110;-68
2021/01/06 13:28:00;;;;;;;11.77;7.95;;;2.00;99.90;;;;;;4963567;28;20047;-68
2021/01/06 13:30:43;;;;;;;9.88;7.63;;;2.00;99.90;;;;;;4966336;28;20060;-70
2021/01/06 13:33:15;;;;;;;9.70;6.53;;;2.00;99.90;;;;;;4962586;28;20166;-70
2021/01/06 13:35:47;;;;;;;9.80;6.60;;;2.00;99.90;;;;;;4961206;28;20181;-73
2021/01/06 13:38:19;;;;;;;13.30;6.97;;;2.00;99.90;;;;;;4960313;28;20064;-67
2021/01/06 13:40:48;;;;;;;8.63;6.85;;;1.90;99.90;;;;;;4965764;28;20042;-72
2021/01/06 13:43:53;;;;;;;13.30;7.32;;;1.90;99.90;;;;;;4962948;28;20050;-66
2021/01/06 13:46:25;;;;;;;10.80;6.53;;;1.90;99.90;;;;;;4964908;28;20058;-65
2021/01/06 13:49:10;;;;;;;14.10;7.82;;;1.90;99.90;;;;;;4963959;28;20042;-67
2021/01/06 13:52:07;;;;;;;11.18;6.80;;;1.90;99.90;;;;;;4960210;28;20055;-69
2021/01/06 13:54:50;;;;;;;10.95;6.95;;;1.90;99.90;;;;;;4965334;28;20058;-72